createdAt,value
2022-09-23T00:00:02.986Z,90.93
2022-09-23T00:01:03.057Z,90.93
2022-09-23T00:02:02.943Z,91.03
2022-09-23T00:03:02.914Z,91.24
2022-09-23T00:04:02.925Z,91.35
2022-09-23T00:05:02.948Z,91.24
2022-09-23T00:06:02.890Z,91.24
2022-09-23T00:07:02.863Z,91.35
2022-09-23T00:08:02.849Z,91.14
2022-09-23T00:09:02.856Z,90.62
2022-09-23T00:10:02.869Z,90.73
2022-09-23T00:11:02.824Z,90.83
2022-09-23T00:12:06.872Z,90.93
2022-09-23T00:13:02.788Z,90.93
2022-09-23T00:14:02.815Z,90.93
2022-09-23T00:15:02.799Z,90.83
2022-09-23T00:16:02.771Z,90.67
2022-09-23T00:17:02.811Z,90.87
2022-09-23T00:18:02.731Z,91.18
2022-09-23T00:19:02.708Z,91.49
2022-09-23T00:20:02.725Z,91.38
2022-09-23T00:21:02.675Z,90.16
2022-09-23T00:22:02.682Z,89.95
2022-09-23T00:23:02.665Z,90.26
2022-09-23T00:24:02.665Z,90.67
2022-09-23T00:25:02.652Z,90.67
2022-09-23T00:26:02.653Z,90.36
2022-09-23T00:27:02.645Z,90.16
2022-09-23T00:28:02.614Z,90.16
2022-09-23T00:29:02.567Z,90.26
2022-09-23T00:30:02.562Z,90.56
2022-09-23T00:31:02.633Z,90.77
2022-09-23T00:32:02.577Z,90.67
2022-09-23T00:33:02.522Z,90.46
2022-09-23T00:34:02.545Z,90.46
2022-09-23T00:35:02.486Z,90.67
2022-09-23T00:36:02.492Z,91.02
2022-09-23T00:37:02.504Z,91.22
2022-09-23T00:38:02.463Z,91.18
2022-09-23T00:39:04.291Z,91.02
2022-09-23T00:40:02.665Z,91.02
2022-09-23T00:41:02.447Z,91.33
2022-09-23T00:42:02.428Z,91.53
2022-09-23T00:43:02.412Z,91.53
2022-09-23T00:44:02.380Z,91.63
2022-09-23T00:45:02.354Z,91.57
2022-09-23T00:46:02.385Z,91.53
2022-09-23T00:47:02.348Z,91.22
2022-09-23T00:48:02.316Z,91.02
2022-09-23T00:49:02.344Z,91.06
2022-09-23T00:50:02.523Z,91.12
2022-09-23T00:51:02.280Z,90.91
2022-09-23T00:52:02.279Z,90.75
2022-09-23T00:53:02.257Z,90.85
2022-09-23T00:54:02.285Z,91.06
2022-09-23T00:55:02.225Z,91.27
2022-09-23T00:56:02.222Z,91.47
2022-09-23T00:57:02.202Z,91.78
2022-09-23T00:58:02.217Z,91.88
2022-09-23T00:59:02.172Z,91.99
2022-09-23T01:00:02.162Z,92.08
2022-09-23T01:01:02.243Z,91.99
2022-09-23T01:02:02.189Z,91.88
2022-09-23T01:03:02.143Z,91.88
2022-09-23T01:04:02.112Z,92.23
2022-09-23T01:05:02.125Z,92.50
2022-09-23T01:06:02.093Z,92.50
2022-09-23T01:07:02.084Z,92.40
2022-09-23T01:08:02.065Z,92.29
2022-09-23T01:09:02.111Z,92.08
2022-09-23T01:10:02.083Z,91.88
2022-09-23T01:11:02.037Z,91.99
2022-09-23T01:12:02.053Z,92.13
2022-09-23T01:13:01.992Z,92.13
2022-09-23T01:14:01.980Z,92.13
2022-09-23T01:15:01.981Z,92.33
2022-09-23T01:16:01.988Z,92.85
2022-09-23T01:17:01.973Z,93.16
2022-09-23T01:18:01.953Z,93.16
2022-09-23T01:19:01.909Z,93.05
2022-09-23T01:20:01.921Z,92.79
2022-09-23T01:21:01.880Z,92.69
2022-09-23T01:22:01.880Z,92.89
2022-09-23T01:23:01.864Z,92.99
2022-09-23T01:24:01.929Z,92.89
2022-09-23T01:25:01.837Z,92.89
2022-09-23T01:26:01.823Z,92.89
2022-09-23T01:27:01.821Z,92.79
2022-09-23T01:28:01.789Z,92.99
2022-09-23T01:29:01.807Z,93.20
2022-09-23T01:30:01.777Z,93.20
2022-09-23T01:31:01.841Z,93.30
2022-09-23T01:32:01.773Z,93.16
2022-09-23T01:33:01.727Z,93.05
2022-09-23T01:34:01.715Z,92.99
2022-09-23T01:35:01.741Z,93.10
2022-09-23T01:36:01.684Z,93.20
2022-09-23T01:37:01.675Z,93.10
2022-09-23T01:38:01.709Z,92.89
2022-09-23T01:39:01.682Z,92.93
2022-09-23T01:40:01.662Z,92.83
2022-09-23T01:41:01.618Z,92.63
2022-09-23T01:42:01.610Z,92.63
2022-09-23T01:43:01.590Z,93.04
2022-09-23T01:44:01.618Z,93.24
2022-09-23T01:45:01.575Z,93.24
2022-09-23T01:46:01.555Z,93.24
2022-09-23T01:47:01.532Z,93.35
2022-09-23T01:48:01.569Z,93.35
2022-09-23T01:49:01.588Z,93.44
2022-09-23T01:50:01.599Z,93.51
2022-09-23T01:51:01.488Z,93.40
2022-09-23T01:52:01.484Z,93.10
2022-09-23T01:53:01.462Z,92.58
2022-09-23T01:54:01.452Z,92.27
2022-09-23T01:55:01.432Z,92.03
2022-09-23T01:56:01.459Z,91.82
2022-09-23T01:57:01.422Z,91.41
2022-09-23T01:58:01.390Z,90.80
2022-09-23T01:59:01.378Z,90.38
2022-09-23T02:00:01.402Z,90.08
2022-09-23T02:01:01.409Z,89.36
2022-09-23T02:02:01.384Z,89.25
2022-09-23T02:03:01.317Z,89.46
2022-09-23T02:04:01.440Z,89.56
2022-09-23T02:05:01.310Z,89.25
2022-09-23T02:06:01.318Z,88.95
2022-09-23T02:07:01.272Z,89.15
2022-09-23T02:08:01.301Z,89.66
2022-09-23T02:09:01.249Z,89.97
2022-09-23T02:10:01.242Z,89.91
2022-09-23T02:11:01.254Z,89.60
2022-09-23T02:12:01.204Z,89.91
2022-09-23T02:13:01.202Z,90.36
2022-09-23T02:14:01.191Z,90.67
2022-09-23T02:15:01.179Z,90.47
2022-09-23T02:16:01.222Z,90.36
2022-09-23T02:17:01.292Z,90.67
2022-09-23T02:18:01.125Z,91.13
2022-09-23T02:19:01.129Z,91.44
2022-09-23T02:20:01.103Z,91.64
2022-09-23T02:21:02.046Z,91.89
2022-09-23T02:22:01.084Z,92.30
2022-09-23T02:23:01.055Z,92.71
2022-09-23T02:24:01.059Z,92.87
2022-09-23T02:25:01.040Z,92.87
2022-09-23T02:26:01.040Z,92.67
2022-09-23T02:27:01.027Z,92.46
2022-09-23T02:28:00.995Z,92.57
2022-09-23T02:29:00.984Z,92.57
2022-09-23T02:30:00.992Z,92.67
2022-09-23T02:31:00.997Z,92.16
2022-09-23T02:32:00.993Z,91.95
2022-09-23T02:33:00.927Z,91.95
2022-09-23T02:34:00.906Z,91.85
2022-09-23T02:35:00.903Z,91.53
2022-09-23T02:36:00.894Z,91.44
2022-09-23T02:37:00.900Z,91.33
2022-09-23T02:38:00.909Z,91.33
2022-09-23T02:39:00.927Z,91.44
2022-09-23T02:40:00.850Z,91.64
2022-09-23T02:41:00.857Z,91.85
2022-09-23T02:42:00.819Z,91.68
2022-09-23T02:43:00.826Z,91.47
2022-09-23T02:44:00.789Z,91.38
2022-09-23T02:45:00.784Z,91.27
2022-09-23T02:46:00.808Z,91.42
2022-09-23T02:47:00.765Z,91.62
2022-09-23T02:48:00.728Z,91.89
2022-09-23T02:49:00.739Z,91.99
2022-09-23T02:50:00.701Z,92.10
2022-09-23T02:51:00.700Z,92.20
2022-09-23T02:52:00.692Z,91.85
2022-09-23T02:53:00.688Z,91.02
2022-09-23T02:54:00.676Z,90.66
2022-09-23T02:55:00.632Z,90.75
2022-09-23T02:56:00.635Z,90.96
2022-09-23T02:57:00.671Z,90.80
2022-09-23T02:58:00.633Z,91.11
2022-09-23T02:59:00.621Z,91.21
2022-09-23T03:00:00.573Z,91.00
2022-09-23T03:01:00.616Z,90.53
2022-09-23T03:02:00.667Z,90.57
2022-09-23T03:03:00.546Z,91.09
2022-09-23T03:04:00.541Z,91.40
2022-09-23T03:05:00.524Z,91.85
2022-09-23T03:06:00.506Z,92.27
2022-09-23T03:07:00.528Z,92.88
2022-09-23T03:08:00.475Z,93.19
2022-09-23T03:09:00.490Z,93.19
2022-09-23T03:10:00.444Z,93.24
2022-09-23T03:11:00.487Z,93.65
2022-09-23T03:12:00.449Z,93.91
2022-09-23T03:13:00.419Z,93.81
2022-09-23T03:14:00.562Z,93.85
2022-09-23T03:15:00.398Z,94.12
2022-09-23T03:16:00.564Z,94.12
2022-09-23T03:17:00.384Z,94.12
2022-09-23T03:18:00.359Z,94.12
2022-09-23T03:19:00.357Z,94.32
2022-09-23T03:20:00.345Z,94.18
2022-09-23T03:21:00.299Z,94.08
2022-09-23T03:22:00.333Z,94.08
2022-09-23T03:23:00.283Z,94.08
2022-09-23T03:24:00.280Z,93.98
2022-09-23T03:25:00.299Z,93.66
2022-09-23T03:26:00.225Z,93.66
2022-09-23T03:27:00.286Z,93.66
2022-09-23T03:28:00.199Z,93.56
2022-09-23T03:29:00.196Z,93.66
2022-09-23T03:30:00.197Z,93.77
2022-09-23T03:31:00.165Z,93.77
2022-09-23T03:32:00.210Z,93.46
2022-09-23T03:33:00.168Z,93.46
2022-09-23T03:34:00.165Z,93.35
2022-09-23T03:35:00.132Z,93.35
2022-09-23T03:36:00.108Z,93.56
2022-09-23T03:37:00.078Z,93.66
2022-09-23T03:38:00.111Z,93.56
2022-09-23T03:39:00.080Z,93.66
2022-09-23T03:40:00.087Z,93.46
2022-09-23T03:41:00.038Z,93.46
2022-09-23T03:42:00.016Z,93.46
2022-09-23T03:43:00.045Z,93.35
2022-09-23T03:44:00.021Z,93.35
2022-09-23T03:44:59.988Z,93.25
2022-09-23T03:46:00.017Z,93.25
2022-09-23T03:46:59.966Z,93.35
2022-09-23T03:47:59.939Z,93.56
2022-09-23T03:48:59.962Z,93.77
2022-09-23T03:49:59.951Z,93.66
2022-09-23T03:50:59.920Z,93.56
2022-09-23T03:51:59.887Z,93.35
2022-09-23T03:53:00.200Z,93.19
2022-09-23T03:53:59.932Z,93.09
2022-09-23T03:54:59.881Z,92.99
2022-09-23T03:55:59.858Z,92.93
2022-09-23T03:56:59.832Z,93.03
2022-09-23T03:57:59.903Z,93.34
2022-09-23T03:58:59.832Z,93.65
2022-09-23T03:59:59.810Z,93.71
2022-09-23T04:00:59.833Z,93.40
2022-09-23T04:01:59.845Z,92.99
2022-09-23T04:02:59.752Z,92.61
2022-09-23T04:03:59.825Z,92.41
2022-09-23T04:04:59.726Z,92.21
2022-09-23T04:05:59.707Z,92.10
2022-09-23T04:06:59.713Z,91.94
2022-09-23T04:07:59.686Z,91.83
2022-09-23T04:08:59.698Z,92.04
2022-09-23T04:09:59.654Z,92.35
2022-09-23T04:10:59.926Z,92.76
2022-09-23T04:11:59.616Z,93.07
2022-09-23T04:12:59.661Z,93.38
2022-09-23T04:13:59.586Z,93.28
2022-09-23T04:14:59.632Z,93.28
2022-09-23T04:15:59.609Z,93.28
2022-09-23T04:16:59.559Z,93.38
2022-09-23T04:17:59.535Z,93.18
2022-09-23T04:18:59.593Z,93.28
2022-09-23T04:19:59.526Z,93.34
2022-09-23T04:20:59.548Z,93.24
2022-09-23T04:21:59.531Z,93.03
2022-09-23T04:22:59.487Z,92.93
2022-09-23T04:23:59.463Z,93.07
2022-09-23T04:24:59.465Z,93.18
2022-09-23T04:25:59.481Z,93.49
2022-09-23T04:26:59.449Z,93.75
2022-09-23T04:27:59.414Z,93.96
2022-09-23T04:28:59.430Z,94.06
2022-09-23T04:29:59.410Z,94.17
2022-09-23T04:30:59.380Z,94.02
2022-09-23T04:31:59.501Z,93.40
2022-09-23T04:32:59.387Z,92.78
2022-09-23T04:33:59.330Z,92.47
2022-09-23T04:34:59.332Z,92.47
2022-09-23T04:35:59.332Z,92.47
2022-09-23T04:36:59.325Z,92.57
2022-09-23T04:37:59.278Z,92.78
2022-09-23T04:38:59.400Z,92.88
2022-09-23T04:39:59.292Z,92.99
2022-09-23T04:40:59.262Z,92.99
2022-09-23T04:41:59.238Z,93.15
2022-09-23T04:42:59.222Z,93.15
2022-09-23T04:43:59.197Z,93.25
2022-09-23T04:44:59.214Z,93.01
2022-09-23T04:46:00.146Z,92.43
2022-09-23T04:46:59.198Z,92.02
2022-09-23T04:47:59.155Z,92.02
2022-09-23T04:48:59.209Z,92.22
2022-09-23T04:50:00.058Z,92.53
2022-09-23T04:50:59.127Z,92.63
2022-09-23T04:51:59.090Z,92.74
2022-09-23T04:52:59.091Z,92.94
2022-09-23T04:53:59.064Z,93.05
2022-09-23T04:54:59.057Z,93.05
2022-09-23T04:55:59.116Z,92.94
2022-09-23T04:56:59.048Z,92.84
2022-09-23T04:57:59.035Z,92.74
2022-09-23T04:58:59.011Z,92.63
2022-09-23T04:59:59.016Z,92.68
2022-09-23T05:01:04.391Z,92.78
2022-09-23T05:01:59.015Z,92.99
2022-09-23T05:02:59.001Z,93.40
2022-09-23T05:03:58.958Z,93.71
2022-09-23T05:04:58.942Z,93.81
2022-09-23T05:05:58.916Z,93.66
2022-09-23T05:07:02.310Z,93.71
2022-09-23T05:07:58.906Z,93.60
2022-09-23T05:08:58.993Z,93.40
2022-09-23T05:09:58.867Z,93.40
2022-09-23T05:10:58.900Z,93.60
2022-09-23T05:11:58.847Z,93.81
2022-09-23T05:12:58.828Z,93.60
2022-09-23T05:13:58.921Z,93.30
2022-09-23T05:14:58.802Z,93.09
2022-09-23T05:15:58.896Z,92.88
2022-09-23T05:16:58.789Z,92.57
2022-09-23T05:17:58.757Z,92.51
2022-09-23T05:18:58.751Z,92.61
2022-09-23T05:19:58.741Z,92.82
2022-09-23T05:20:58.858Z,93.13
2022-09-23T05:21:58.727Z,93.54
2022-09-23T05:22:58.697Z,93.65
2022-09-23T05:23:58.676Z,93.75
2022-09-23T05:24:58.671Z,93.81
2022-09-23T05:25:58.693Z,93.71
2022-09-23T05:26:58.668Z,93.60
2022-09-23T05:27:58.631Z,93.60
2022-09-23T05:28:58.611Z,93.60
2022-09-23T05:29:58.597Z,93.50
2022-09-23T05:30:58.606Z,93.40
2022-09-23T05:31:59.031Z,93.46
2022-09-23T05:32:58.604Z,93.56
2022-09-23T05:33:58.568Z,93.66
2022-09-23T05:34:58.532Z,93.56
2022-09-23T05:35:58.516Z,93.35
2022-09-23T05:36:58.517Z,93.25
2022-09-23T05:37:58.505Z,93.25
2022-09-23T05:38:58.508Z,93.11
2022-09-23T05:39:58.471Z,93.21
2022-09-23T05:40:58.483Z,93.21
2022-09-23T05:41:58.481Z,93.15
2022-09-23T05:42:58.449Z,93.15
2022-09-23T05:43:58.414Z,93.25
2022-09-23T05:44:58.443Z,93.35
2022-09-23T05:45:58.411Z,93.15
2022-09-23T05:46:58.476Z,93.05
2022-09-23T05:47:58.373Z,93.05
2022-09-23T05:49:02.093Z,93.15
2022-09-23T05:50:00.497Z,93.05
2022-09-23T05:50:58.325Z,93.15
2022-09-23T05:51:58.312Z,93.25
2022-09-23T05:52:58.305Z,93.11
2022-09-23T05:53:58.569Z,93.11
2022-09-23T05:54:58.310Z,93.31
2022-09-23T05:55:58.352Z,93.52
2022-09-23T05:56:59.294Z,93.52
2022-09-23T05:57:58.232Z,93.41
2022-09-23T05:58:58.294Z,93.31
2022-09-23T05:59:58.223Z,93.06
2022-09-23T06:00:58.229Z,92.96
2022-09-23T06:01:58.271Z,92.96
2022-09-23T06:02:58.305Z,93.06
2022-09-23T06:03:58.169Z,93.16
2022-09-23T06:04:58.131Z,93.16
2022-09-23T06:05:58.132Z,93.16
2022-09-23T06:07:02.804Z,93.16
2022-09-23T06:07:58.095Z,93.16
2022-09-23T06:08:58.093Z,93.27
2022-09-23T06:09:58.070Z,93.48
2022-09-23T06:10:58.047Z,93.68
2022-09-23T06:11:58.078Z,93.88
2022-09-23T06:12:58.084Z,93.99
2022-09-23T06:13:58.046Z,94.20
2022-09-23T06:14:58.007Z,94.40
2022-09-23T06:15:58.096Z,94.56
2022-09-23T06:16:57.994Z,94.71
2022-09-23T06:17:58.021Z,94.92
2022-09-23T06:19:01.766Z,95.02
2022-09-23T06:19:57.950Z,95.02
2022-09-23T06:20:57.936Z,95.33
2022-09-23T06:21:57.922Z,95.53
2022-09-23T06:22:57.899Z,95.84
2022-09-23T06:23:57.939Z,96.15
2022-09-23T06:24:57.918Z,96.36
2022-09-23T06:25:57.863Z,96.46
2022-09-23T06:26:57.859Z,96.67
2022-09-23T06:27:57.825Z,96.77
2022-09-23T06:28:57.825Z,96.72
2022-09-23T06:29:57.817Z,96.72
2022-09-23T06:30:57.868Z,96.72
2022-09-23T06:31:57.811Z,96.72
2022-09-23T06:32:57.763Z,96.72
2022-09-23T06:34:07.243Z,96.47
2022-09-23T06:34:57.754Z,96.37
2022-09-23T06:35:59.832Z,96.37
2022-09-23T06:36:58.215Z,96.37
2022-09-23T06:37:57.708Z,96.37
2022-09-23T06:38:57.694Z,96.37
2022-09-23T06:39:57.700Z,96.33
2022-09-23T06:40:57.694Z,96.22
2022-09-23T06:41:57.738Z,96.22
2022-09-23T06:42:57.636Z,96.22
2022-09-23T06:43:57.624Z,96.12
2022-09-23T06:44:57.675Z,96.12
2022-09-23T06:45:57.622Z,96.02
2022-09-23T06:46:57.644Z,96.02
2022-09-23T06:47:57.564Z,96.02
2022-09-23T06:48:57.610Z,96.08
2022-09-23T06:49:57.550Z,96.08
2022-09-23T06:50:57.547Z,96.08
2022-09-23T06:51:57.516Z,96.03
2022-09-23T06:52:57.522Z,96.03
2022-09-23T06:53:57.511Z,96.03
2022-09-23T06:54:57.594Z,95.83
2022-09-23T06:55:57.476Z,95.68
2022-09-23T06:56:57.453Z,95.47
2022-09-23T06:57:57.463Z,95.27
2022-09-23T06:58:57.450Z,94.96
2022-09-23T06:59:57.456Z,94.71
2022-09-23T07:00:57.420Z,94.51
2022-09-23T07:01:57.532Z,94.30
2022-09-23T07:02:57.460Z,94.20
2022-09-23T07:03:57.367Z,94.10
2022-09-23T07:04:57.343Z,94.05
2022-09-23T07:05:57.366Z,93.95
2022-09-23T07:06:57.355Z,93.85
2022-09-23T07:07:57.321Z,93.74
2022-09-23T07:08:57.294Z,93.74
2022-09-23T07:09:57.306Z,93.60
2022-09-23T07:10:57.298Z,93.49
2022-09-23T07:11:58.140Z,93.49
2022-09-23T07:12:57.273Z,93.39
2022-09-23T07:13:57.224Z,92.88
2022-09-23T07:14:57.298Z,92.68
2022-09-23T07:15:57.266Z,92.57
2022-09-23T07:16:57.249Z,92.57
2022-09-23T07:17:57.214Z,92.43
2022-09-23T07:18:57.167Z,92.22
2022-09-23T07:19:57.176Z,91.91
2022-09-23T07:20:57.186Z,91.50
2022-09-23T07:21:57.148Z,91.35
2022-09-23T07:22:57.137Z,91.14
2022-09-23T07:23:57.101Z,91.20
2022-09-23T07:24:57.094Z,91.30
2022-09-23T07:25:57.085Z,91.50
2022-09-23T07:26:57.084Z,91.61
2022-09-23T07:27:57.092Z,91.61
2022-09-23T07:28:57.118Z,91.46
2022-09-23T07:29:57.054Z,91.36
2022-09-23T07:31:00.355Z,91.36
2022-09-23T07:32:08.590Z,91.77
2022-09-23T07:32:57.089Z,91.83
2022-09-23T07:33:57.017Z,91.73
2022-09-23T07:34:56.949Z,91.48
2022-09-23T07:35:56.950Z,91.17
2022-09-23T07:36:56.921Z,90.97
2022-09-23T07:37:56.930Z,90.41
2022-09-23T07:38:56.930Z,89.80
2022-09-23T07:39:56.933Z,89.59
2022-09-23T07:40:56.865Z,89.18
2022-09-23T07:41:56.867Z,88.74
2022-09-23T07:42:56.849Z,88.33
2022-09-23T07:43:56.894Z,88.12
2022-09-23T07:44:56.833Z,88.43
2022-09-23T07:45:56.822Z,88.18
2022-09-23T07:46:56.803Z,88.08
2022-09-23T07:47:56.760Z,87.47
2022-09-23T07:48:56.769Z,87.47
2022-09-23T07:49:56.741Z,87.26
2022-09-23T07:50:56.768Z,87.16
2022-09-23T07:51:56.735Z,86.96
2022-09-23T07:52:56.699Z,87.26
2022-09-23T07:53:56.698Z,87.57
2022-09-23T07:54:56.694Z,87.67
2022-09-23T07:55:56.718Z,87.77
2022-09-23T07:56:56.657Z,87.47
2022-09-23T07:57:56.641Z,87.12
2022-09-23T07:58:56.628Z,87.12
2022-09-23T07:59:57.050Z,86.71
2022-09-23T08:00:56.605Z,86.47
2022-09-23T08:01:56.717Z,86.16
2022-09-23T08:02:56.598Z,85.96
2022-09-23T08:03:56.576Z,85.96
2022-09-23T08:04:56.555Z,86.36
2022-09-23T08:05:56.593Z,86.16
2022-09-23T08:06:56.548Z,86.02
2022-09-23T08:07:56.494Z,85.51
2022-09-23T08:08:56.485Z,84.90
2022-09-23T08:09:56.491Z,84.90
2022-09-23T08:10:56.485Z,84.80
2022-09-23T08:11:56.490Z,84.96
2022-09-23T08:12:56.529Z,85.27
2022-09-23T08:13:56.426Z,85.27
2022-09-23T08:14:56.419Z,84.51
2022-09-23T08:15:56.470Z,83.76
2022-09-23T08:16:56.371Z,83.56
2022-09-23T08:17:56.385Z,82.84
2022-09-23T08:18:56.431Z,81.88
2022-09-23T08:19:56.347Z,81.17
2022-09-23T08:20:56.357Z,81.68
2022-09-23T08:21:56.328Z,81.65
2022-09-23T08:22:56.297Z,81.34
2022-09-23T08:23:56.333Z,81.44
2022-09-23T08:24:56.875Z,80.32
2022-09-23T08:25:58.917Z,80.02
2022-09-23T08:26:56.255Z,80.83
2022-09-23T08:27:56.236Z,80.32
2022-09-23T08:28:56.734Z,80.22
2022-09-23T08:29:56.233Z,80.83
2022-09-23T08:30:56.380Z,81.13
2022-09-23T08:31:56.188Z,81.20
2022-09-23T08:32:56.167Z,80.79
2022-09-23T08:33:56.165Z,80.08
2022-09-23T08:34:56.217Z,79.16
2022-09-23T08:35:56.130Z,79.53
2022-09-23T08:36:56.110Z,79.33
2022-09-23T08:37:56.099Z,78.41
2022-09-23T08:38:56.081Z,78.48
2022-09-23T08:39:56.087Z,77.97
2022-09-23T08:40:56.118Z,77.77
2022-09-23T08:41:58.793Z,78.62
2022-09-23T08:42:56.055Z,78.62
2022-09-23T08:43:56.047Z,79.02
2022-09-23T08:44:56.030Z,78.82
2022-09-23T08:45:56.028Z,78.96
2022-09-23T08:46:56.045Z,79.16
2022-09-23T08:47:55.974Z,79.37
2022-09-23T08:48:55.967Z,80.08
2022-09-23T08:49:55.946Z,80.35
2022-09-23T08:50:55.952Z,80.15
2022-09-23T08:51:55.958Z,79.19
2022-09-23T08:52:55.947Z,79.60
2022-09-23T08:53:55.893Z,79.25
2022-09-23T08:54:55.878Z,78.71
2022-09-23T08:55:55.870Z,77.36
2022-09-23T08:56:55.846Z,75.63
2022-09-23T08:58:23.432Z,75.12
2022-09-23T08:58:56.018Z,75.02
2022-09-23T08:59:55.932Z,75.05
2022-09-23T09:00:55.829Z,75.46
2022-09-23T09:01:55.788Z,76.44
2022-09-23T09:02:55.814Z,76.24
2022-09-23T09:03:55.771Z,76.44
2022-09-23T09:04:55.764Z,76.31
2022-09-23T09:05:55.744Z,75.46
2022-09-23T09:07:00.202Z,75.25
2022-09-23T09:07:55.710Z,74.41
2022-09-23T09:08:55.693Z,72.96
2022-09-23T09:09:55.860Z,71.91
2022-09-23T09:10:55.704Z,71.09
2022-09-23T09:11:55.645Z,72.72
2022-09-23T09:12:55.642Z,72.55
2022-09-23T09:13:55.632Z,73.32
2022-09-23T09:14:55.952Z,72.58
2022-09-23T09:15:55.705Z,71.23
2022-09-23T09:17:00.095Z,70.59
2022-09-23T09:17:55.584Z,70.79
2022-09-23T09:18:55.571Z,70.46
2022-09-23T09:19:55.582Z,69.65
2022-09-23T09:20:55.529Z,70.25
2022-09-23T09:21:55.546Z,69.65
2022-09-23T09:22:55.531Z,69.38
2022-09-23T09:23:55.483Z,70.49
2022-09-23T09:24:55.484Z,69.55
2022-09-23T09:25:55.481Z,68.84
2022-09-23T09:26:55.475Z,69.07
2022-09-23T09:27:55.484Z,69.98
2022-09-23T09:29:06.583Z,70.12
2022-09-23T09:29:55.432Z,69.81
2022-09-23T09:30:55.403Z,71.50
2022-09-23T09:31:55.421Z,70.39
2022-09-23T09:32:55.381Z,70.76
2022-09-23T09:33:55.402Z,69.75
2022-09-23T09:34:55.350Z,70.46
2022-09-23T09:35:55.329Z,70.49
2022-09-23T09:36:55.331Z,71.47
2022-09-23T09:37:55.321Z,69.34
2022-09-23T09:38:56.012Z,69.65
2022-09-23T09:39:55.290Z,70.12
2022-09-23T09:40:55.361Z,69.28
2022-09-23T09:41:55.296Z,69.35
2022-09-23T09:42:55.239Z,67.63
2022-09-23T09:43:55.230Z,66.62
2022-09-23T09:44:55.234Z,66.82
2022-09-23T09:45:57.812Z,67.16
2022-09-23T09:46:55.247Z,68.17
2022-09-23T09:47:55.203Z,67.36
2022-09-23T09:48:55.181Z,67.53
2022-09-23T09:49:55.176Z,68.51
2022-09-23T09:50:55.135Z,67.70
2022-09-23T09:51:55.115Z,66.86
2022-09-23T09:52:55.068Z,67.57
2022-09-23T09:53:55.051Z,65.55
2022-09-23T09:54:55.032Z,66.59
2022-09-23T09:55:55.021Z,67.23
2022-09-23T09:56:55.028Z,68.54
2022-09-23T09:57:55.025Z,67.93
2022-09-23T09:58:54.992Z,68.04
2022-09-23T09:59:55.002Z,67.02
2022-09-23T10:00:54.949Z,66.49
2022-09-23T10:01:54.927Z,66.69
2022-09-23T10:02:54.918Z,67.27
2022-09-23T10:03:58.443Z,66.16
2022-09-23T10:04:54.956Z,65.42
2022-09-23T10:05:54.878Z,66.16
2022-09-23T10:06:54.860Z,67.30
2022-09-23T10:07:54.875Z,67.83
2022-09-23T10:08:54.881Z,69.28
2022-09-23T10:09:58.298Z,69.48
2022-09-23T10:10:54.837Z,69.35
2022-09-23T10:11:54.805Z,68.10
2022-09-23T10:12:54.777Z,66.36
2022-09-23T10:13:54.784Z,65.92
2022-09-23T10:14:54.769Z,65.99
2022-09-23T10:15:54.793Z,66.27
2022-09-23T10:16:54.798Z,65.26
2022-09-23T10:17:54.709Z,64.25
2022-09-23T10:18:54.713Z,65.89
2022-09-23T10:19:54.700Z,65.09
2022-09-23T10:20:54.705Z,64.58
2022-09-23T10:21:54.669Z,64.51
2022-09-23T10:22:54.650Z,65.62
2022-09-23T10:23:54.633Z,65.75
2022-09-23T10:24:54.624Z,66.96
2022-09-23T10:25:54.651Z,66.83
2022-09-23T10:26:54.603Z,65.01
2022-09-23T10:27:54.622Z,63.60
2022-09-23T10:28:54.567Z,64.41
2022-09-23T10:29:54.593Z,64.92
2022-09-23T10:30:54.655Z,64.41
2022-09-23T10:31:54.545Z,65.25
2022-09-23T10:32:54.513Z,64.54
2022-09-23T10:33:54.504Z,65.05
2022-09-23T10:34:54.533Z,64.84
2022-09-23T10:35:54.486Z,64.24
2022-09-23T10:36:54.488Z,64.84
2022-09-23T10:37:54.540Z,64.95
2022-09-23T10:38:54.482Z,65.05
2022-09-23T10:39:54.436Z,64.64
2022-09-23T10:40:54.549Z,65.82
2022-09-23T10:41:54.401Z,64.95
2022-09-23T10:42:54.441Z,64.95
2022-09-23T10:43:54.376Z,65.95
2022-09-23T10:44:54.373Z,65.45
2022-09-23T10:45:54.416Z,65.42
2022-09-23T10:46:54.378Z,65.42
2022-09-23T10:47:54.321Z,64.24
2022-09-23T10:48:54.346Z,64.72
2022-09-23T10:49:54.313Z,65.32
2022-09-23T10:50:54.315Z,65.12
2022-09-23T10:51:54.288Z,63.10
2022-09-23T10:52:54.301Z,63.00
2022-09-23T10:53:54.260Z,64.21
2022-09-23T10:54:54.246Z,63.40
2022-09-23T10:55:54.222Z,63.00
2022-09-23T10:56:59.202Z,63.60
2022-09-23T10:57:54.219Z,62.70
2022-09-23T10:58:54.231Z,63.90
2022-09-23T10:59:54.193Z,63.60
2022-09-23T11:00:54.280Z,64.51
2022-09-23T11:01:54.216Z,63.70
2022-09-23T11:02:54.160Z,64.11
2022-09-23T11:03:54.124Z,64.81
2022-09-23T11:04:54.149Z,64.07
2022-09-23T11:05:54.137Z,64.38
2022-09-23T11:06:54.145Z,63.30
2022-09-23T11:07:54.310Z,64.31
2022-09-23T11:08:54.071Z,63.27
2022-09-23T11:09:54.033Z,63.17
2022-09-23T11:10:54.049Z,63.30
2022-09-23T11:11:54.069Z,63.10
2022-09-23T11:12:54.024Z,63.70
2022-09-23T11:13:54.826Z,64.48
2022-09-23T11:14:53.990Z,65.39
2022-09-23T11:15:53.966Z,64.07
2022-09-23T11:16:54.073Z,63.65
2022-09-23T11:17:53.952Z,64.95
2022-09-23T11:18:53.933Z,64.55
2022-09-23T11:19:53.918Z,62.64
2022-09-23T11:20:53.893Z,63.24
2022-09-23T11:21:53.943Z,63.54
2022-09-23T11:22:53.895Z,62.57
2022-09-23T11:23:53.890Z,62.97
2022-09-23T11:24:53.851Z,64.28
2022-09-23T11:25:53.964Z,62.66
2022-09-23T11:26:53.888Z,62.97
2022-09-23T11:27:53.861Z,63.07
2022-09-23T11:28:53.819Z,62.46
2022-09-23T11:29:53.908Z,62.57
2022-09-23T11:30:53.833Z,61.86
2022-09-23T11:31:58.753Z,62.16
2022-09-23T11:32:53.880Z,62.16
2022-09-23T11:33:53.729Z,62.16
2022-09-23T11:34:55.037Z,62.74
2022-09-23T11:35:53.704Z,62.34
2022-09-23T11:36:53.702Z,61.53
2022-09-23T11:37:53.742Z,61.23
2022-09-23T11:38:53.671Z,61.20
2022-09-23T11:39:53.663Z,60.49
2022-09-23T11:40:53.801Z,61.50
2022-09-23T11:41:53.613Z,60.49
2022-09-23T11:42:53.650Z,59.59
2022-09-23T11:43:54.202Z,60.06
2022-09-23T11:44:53.700Z,59.96
2022-09-23T11:45:53.592Z,59.96
2022-09-23T11:46:53.563Z,60.47
2022-09-23T11:47:53.552Z,60.77
2022-09-23T11:48:53.575Z,59.76
2022-09-23T11:49:53.550Z,60.16
2022-09-23T11:50:53.518Z,60.27
2022-09-23T11:51:53.492Z,59.76
2022-09-23T11:52:53.891Z,60.16
2022-09-23T11:53:53.474Z,59.26
2022-09-23T11:54:53.497Z,58.55
2022-09-23T11:55:57.983Z,58.95
2022-09-23T11:56:53.427Z,58.62
2022-09-23T11:57:53.557Z,58.93
2022-09-23T11:58:57.014Z,59.33
2022-09-23T11:59:53.427Z,58.83
2022-09-23T12:00:59.679Z,59.23
2022-09-23T12:01:53.557Z,58.53
2022-09-23T12:03:03.326Z,59.33
2022-09-23T12:03:53.567Z,57.42
2022-09-23T12:04:57.466Z,58.12
2022-09-23T12:05:53.439Z,57.82
2022-09-23T12:06:53.361Z,57.02
2022-09-23T12:07:53.275Z,57.42
2022-09-23T12:08:53.292Z,57.02
2022-09-23T12:09:58.585Z,57.15
2022-09-23T12:10:53.509Z,56.64
2022-09-23T12:11:53.244Z,57.85
2022-09-23T12:12:53.243Z,58.05
2022-09-23T12:13:53.222Z,58.75
2022-09-23T12:14:53.214Z,58.35
2022-09-23T12:15:53.209Z,58.35
2022-09-23T12:16:53.255Z,59.16
2022-09-23T12:17:53.161Z,58.55
2022-09-23T12:18:53.218Z,59.76
2022-09-23T12:19:53.447Z,59.26
2022-09-23T12:20:53.121Z,59.56
2022-09-23T12:21:53.158Z,59.26
2022-09-23T12:22:53.121Z,60.57
2022-09-23T12:23:53.072Z,59.96
2022-09-23T12:24:53.075Z,60.36
2022-09-23T12:25:53.041Z,60.67
2022-09-23T12:26:53.030Z,58.95
2022-09-23T12:27:53.171Z,58.86
2022-09-23T12:28:53.037Z,58.95
2022-09-23T12:29:52.994Z,59.33
2022-09-23T12:30:53.030Z,58.12
2022-09-23T12:31:52.989Z,58.12
2022-09-23T12:32:52.974Z,58.73
2022-09-23T12:33:52.943Z,59.33
2022-09-23T12:34:52.927Z,58.80
2022-09-23T12:35:52.944Z,58.80
2022-09-23T12:36:52.937Z,59.50
2022-09-23T12:37:52.912Z,58.80
2022-09-23T12:38:52.903Z,58.90
2022-09-23T12:39:52.877Z,58.29
2022-09-23T12:40:52.995Z,58.80
2022-09-23T12:41:52.868Z,59.30
2022-09-23T12:42:52.822Z,58.09
2022-09-23T12:43:53.151Z,57.57
2022-09-23T12:44:52.827Z,58.17
2022-09-23T12:45:53.169Z,57.57
2022-09-23T12:46:52.778Z,56.96
2022-09-23T12:47:52.771Z,57.59
2022-09-23T12:48:52.775Z,58.40
2022-09-23T12:49:52.752Z,59.20
2022-09-23T12:50:52.715Z,58.90
2022-09-23T12:51:52.750Z,57.37